sensor_id;sensor_type;location;lat;lon;timestamp;P1;durP1;ratioP1;P2;durP2;ratioP2
3463;SDS011;3551;41.578;24.706;2022-10-16T00:02:38;16.00;;;9.17;;
3463;SDS011;3551;41.578;24.706;2022-10-16T00:05:09;16.30;;;9.27;;
3463;SDS011;3551;41.578;24.706;2022-10-16T00:07:40;11.93;;;8.60;;
3463;SDS011;3551;41.578;24.706;2022-10-16T00:10:12;12.77;;;8.40;;
3463;SDS011;3551;41.578;24.706;2022-10-16T00:12:43;14.40;;;7.70;;
3463;SDS011;3551;41.578;24.706;2022-10-16T00:15:28;19.33;;;8.13;;
3463;SDS011;3551;41.578;24.706;2022-10-16T00:18:11;13.47;;;7.97;;
3463;SDS011;3551;41.578;24.706;2022-10-16T00:20:42;11.87;;;7.93;;
3463;SDS011;3551;41.578;24.706;2022-10-16T00:23:11;14.77;;;8.60;;
3463;SDS011;3551;41.578;24.706;2022-10-16T00:26:18;13.30;;;7.60;;
3463;SDS011;3551;41.578;24.706;2022-10-16T00:29:03;20.30;;;8.73;;
3463;SDS011;3551;41.578;24.706;2022-10-16T00:32:08;17.33;;;8.40;;
3463;SDS011;3551;41.578;24.706;2022-10-16T00:38:16;12.37;;;7.73;;
3463;SDS011;3551;41.578;24.706;2022-10-16T00:43:58;13.30;;;7.60;;
3463;SDS011;3551;41.578;24.706;2022-10-16T00:46:49;13.77;;;8.40;;
3463;SDS011;3551;41.578;24.706;2022-10-16T00:49:39;12.07;;;8.30;;
3463;SDS011;3551;41.578;24.706;2022-10-16T00:52:33;17.77;;;8.23;;
3463;SDS011;3551;41.578;24.706;2022-10-16T00:55:18;16.70;;;9.10;;
3463;SDS011;3551;41.578;24.706;2022-10-16T00:58:14;14.33;;;7.63;;
3463;SDS011;3551;41.578;24.706;2022-10-16T01:01:10;13.00;;;7.83;;
3463;SDS011;3551;41.578;24.706;2022-10-16T01:04:06;13.40;;;8.57;;
3463;SDS011;3551;41.578;24.706;2022-10-16T01:06:50;15.03;;;9.13;;
3463;SDS011;3551;41.578;24.706;2022-10-16T01:13:06;11.40;;;7.37;;
3463;SDS011;3551;41.578;24.706;2022-10-16T01:15:45;16.30;;;8.83;;
3463;SDS011;3551;41.578;24.706;2022-10-16T01:18:30;13.03;;;7.90;;
3463;SDS011;3551;41.578;24.706;2022-10-16T01:21:20;13.70;;;7.63;;
3463;SDS011;3551;41.578;24.706;2022-10-16T01:24:17;10.93;;;7.20;;
3463;SDS011;3551;41.578;24.706;2022-10-16T01:30:35;14.23;;;8.67;;
3463;SDS011;3551;41.578;24.706;2022-10-16T01:33:19;14.17;;;7.50;;
3463;SDS011;3551;41.578;24.706;2022-10-16T01:36:23;12.43;;;8.03;;
3463;SDS011;3551;41.578;24.706;2022-10-16T01:39:52;14.60;;;8.17;;
3463;SDS011;3551;41.578;24.706;2022-10-16T01:42:43;13.27;;;8.80;;
3463;SDS011;3551;41.578;24.706;2022-10-16T01:45:31;17.33;;;8.60;;
3463;SDS011;3551;41.578;24.706;2022-10-16T01:48:32;13.00;;;7.80;;
3463;SDS011;3551;41.578;24.706;2022-10-16T01:51:13;14.73;;;8.93;;
3463;SDS011;3551;41.578;24.706;2022-10-16T01:53:52;17.33;;;8.40;;
3463;SDS011;3551;41.578;24.706;2022-10-16T02:00:12;13.13;;;8.40;;
3463;SDS011;3551;41.578;24.706;2022-10-16T02:03:09;10.10;;;7.47;;
3463;SDS011;3551;41.578;24.706;2022-10-16T02:05:51;9.93;;;7.63;;
3463;SDS011;3551;41.578;24.706;2022-10-16T02:08:38;14.47;;;7.57;;
3463;SDS011;3551;41.578;24.706;2022-10-16T02:11:22;12.80;;;8.00;;
3463;SDS011;3551;41.578;24.706;2022-10-16T02:14:01;14.40;;;8.47;;
3463;SDS011;3551;41.578;24.706;2022-10-16T02:16:49;11.32;;;7.35;;
3463;SDS011;3551;41.578;24.706;2022-10-16T02:19:25;10.97;;;7.50;;
3463;SDS011;3551;41.578;24.706;2022-10-16T02:26:21;19.00;;;7.93;;
3463;SDS011;3551;41.578;24.706;2022-10-16T02:29:17;10.77;;;7.27;;
3463;SDS011;3551;41.578;24.706;2022-10-16T02:35:18;12.88;;;7.72;;
3463;SDS011;3551;41.578;24.706;2022-10-16T02:37:57;10.83;;;7.67;;
3463;SDS011;3551;41.578;24.706;2022-10-16T02:41:00;12.63;;;7.70;;
3463;SDS011;3551;41.578;24.706;2022-10-16T02:46:45;11.30;;;7.33;;
3463;SDS011;3551;41.578;24.706;2022-10-16T02:49:39;14.80;;;8.00;;
3463;SDS011;3551;41.578;24.706;2022-10-16T02:52:16;15.67;;;8.40;;
3463;SDS011;3551;41.578;24.706;2022-10-16T02:54:53;13.20;;;7.37;;
3463;SDS011;3551;41.578;24.706;2022-10-16T02:57:42;17.03;;;9.37;;
3463;SDS011;3551;41.578;24.706;2022-10-16T03:00:30;10.63;;;7.20;;
3463;SDS011;3551;41.578;24.706;2022-10-16T03:03:22;14.47;;;8.77;;
3463;SDS011;3551;41.578;24.706;2022-10-16T03:06:45;11.60;;;7.70;;
3463;SDS011;3551;41.578;24.706;2022-10-16T03:09:23;12.50;;;7.80;;
3463;SDS011;3551;41.578;24.706;2022-10-16T03:12:32;12.90;;;8.37;;
3463;SDS011;3551;41.578;24.706;2022-10-16T03:15:29;11.10;;;7.70;;
3463;SDS011;3551;41.578;24.706;2022-10-16T03:19:06;13.40;;;8.00;;
3463;SDS011;3551;41.578;24.706;2022-10-16T03:22:04;12.50;;;8.53;;
3463;SDS011;3551;41.578;24.706;2022-10-16T03:25:00;16.07;;;7.60;;
3463;SDS011;3551;41.578;24.706;2022-10-16T03:27:49;14.77;;;8.65;;
3463;SDS011;3551;41.578;24.706;2022-10-16T03:31:04;17.27;;;9.53;;
3463;SDS011;3551;41.578;24.706;2022-10-16T03:34:06;13.57;;;7.95;;
3463;SDS011;3551;41.578;24.706;2022-10-16T03:53:12;17.10;;;9.45;;
3463;SDS011;3551;41.578;24.706;2022-10-16T03:56:40;11.57;;;8.00;;
3463;SDS011;3551;41.578;24.706;2022-10-16T03:59:22;12.25;;;8.13;;
3463;SDS011;3551;41.578;24.706;2022-10-16T04:19:39;11.82;;;8.18;;
3463;SDS011;3551;41.578;24.706;2022-10-16T04:22:35;14.33;;;7.67;;
3463;SDS011;3551;41.578;24.706;2022-10-16T04:25:19;13.85;;;8.68;;
3463;SDS011;3551;41.578;24.706;2022-10-16T04:44:55;15.85;;;9.15;;
3463;SDS011;3551;41.578;24.706;2022-10-16T04:47:58;11.18;;;6.75;;
3463;SDS011;3551;41.578;24.706;2022-10-16T04:54:00;11.95;;;7.28;;
3463;SDS011;3551;41.578;24.706;2022-10-16T04:57:04;13.00;;;8.07;;
3463;SDS011;3551;41.578;24.706;2022-10-16T04:59:53;12.40;;;7.40;;
3463;SDS011;3551;41.578;24.706;2022-10-16T05:03:04;15.03;;;8.57;;
3463;SDS011;3551;41.578;24.706;2022-10-16T05:06:10;30.55;;;8.60;;
3463;SDS011;3551;41.578;24.706;2022-10-16T05:08:43;11.40;;;7.28;;
3463;SDS011;3551;41.578;24.706;2022-10-16T05:11:19;11.38;;;8.05;;
3463;SDS011;3551;41.578;24.706;2022-10-16T05:13:58;14.52;;;8.70;;
3463;SDS011;3551;41.578;24.706;2022-10-16T05:16:44;13.50;;;7.65;;
3463;SDS011;3551;41.578;24.706;2022-10-16T05:19:45;34.92;;;9.60;;
3463;SDS011;3551;41.578;24.706;2022-10-16T05:22:14;11.80;;;8.30;;
3463;SDS011;3551;41.578;24.706;2022-10-16T05:24:43;12.30;;;8.17;;
3463;SDS011;3551;41.578;24.706;2022-10-16T05:27:23;10.33;;;6.93;;
3463;SDS011;3551;41.578;24.706;2022-10-16T05:29:53;16.20;;;7.73;;
3463;SDS011;3551;41.578;24.706;2022-10-16T05:32:35;13.27;;;7.60;;
3463;SDS011;3551;41.578;24.706;2022-10-16T05:35:08;11.37;;;6.83;;
3463;SDS011;3551;41.578;24.706;2022-10-16T05:37:59;13.00;;;6.77;;
3463;SDS011;3551;41.578;24.706;2022-10-16T05:40:37;11.67;;;7.63;;
3463;SDS011;3551;41.578;24.706;2022-10-16T05:43:24;10.20;;;8.00;;
3463;SDS011;3551;41.578;24.706;2022-10-16T05:46:11;18.50;;;8.30;;
3463;SDS011;3551;41.578;24.706;2022-10-16T05:48:58;13.73;;;8.63;;
3463;SDS011;3551;41.578;24.706;2022-10-16T05:51:32;10.77;;;7.70;;
3463;SDS011;3551;41.578;24.706;2022-10-16T05:54:04;11.40;;;8.43;;
3463;SDS011;3551;41.578;24.706;2022-10-16T05:57:04;14.53;;;8.03;;
3463;SDS011;3551;41.578;24.706;2022-10-16T05:59:59;11.20;;;7.40;;
3463;SDS011;3551;41.578;24.706;2022-10-16T06:03:10;11.60;;;8.00;;
3463;SDS011;3551;41.578;24.706;2022-10-16T06:05:57;19.43;;;9.23;;
3463;SDS011;3551;41.578;24.706;2022-10-16T06:08:28;16.20;;;9.43;;
3463;SDS011;3551;41.578;24.706;2022-10-16T06:11:12;18.40;;;9.67;;
3463;SDS011;3551;41.578;24.706;2022-10-16T06:13:53;19.40;;;10.40;;
3463;SDS011;3551;41.578;24.706;2022-10-16T06:16:45;21.47;;;13.30;;
3463;SDS011;3551;41.578;24.706;2022-10-16T06:22:52;33.97;;;18.70;;
3463;SDS011;3551;41.578;24.706;2022-10-16T06:25:57;32.93;;;15.40;;
3463;SDS011;3551;41.578;24.706;2022-10-16T06:32:53;23.57;;;14.00;;
3463;SDS011;3551;41.578;24.706;2022-10-16T06:42:23;21.80;;;12.80;;
3463;SDS011;3551;41.578;24.706;2022-10-16T06:45:08;20.20;;;12.20;;
3463;SDS011;3551;41.578;24.706;2022-10-16T06:47:57;25.97;;;13.67;;
3463;SDS011;3551;41.578;24.706;2022-10-16T06:53:47;22.07;;;12.50;;
3463;SDS011;3551;41.578;24.706;2022-10-16T07:04:26;15.40;;;11.90;;
3463;SDS011;3551;41.578;24.706;2022-10-16T07:10:57;19.30;;;11.93;;
3463;SDS011;3551;41.578;24.706;2022-10-16T07:14:12;17.50;;;11.00;;
3463;SDS011;3551;41.578;24.706;2022-10-16T07:18:01;14.40;;;9.53;;
3463;SDS011;3551;41.578;24.706;2022-10-16T07:21:22;14.27;;;10.00;;
3463;SDS011;3551;41.578;24.706;2022-10-16T09:53:08;5.80;;;3.17;;
3463;SDS011;3551;41.578;24.706;2022-10-16T09:58:30;5.43;;;3.00;;
3463;SDS011;3551;41.578;24.706;2022-10-16T10:00:58;5.37;;;3.67;;
3463;SDS011;3551;41.578;24.706;2022-10-16T10:03:36;5.63;;;3.67;;
3463;SDS011;3551;41.578;24.706;2022-10-16T10:22:45;5.70;;;2.97;;
3463;SDS011;3551;41.578;24.706;2022-10-16T10:25:15;5.10;;;3.37;;
3463;SDS011;3551;41.578;24.706;2022-10-16T10:33:17;3.80;;;2.80;;
3463;SDS011;3551;41.578;24.706;2022-10-16T10:39:04;10.73;;;3.90;;
3463;SDS011;3551;41.578;24.706;2022-10-16T10:47:53;7.37;;;3.20;;
3463;SDS011;3551;41.578;24.706;2022-10-16T10:51:05;4.80;;;2.80;;
3463;SDS011;3551;41.578;24.706;2022-10-16T10:53:40;4.77;;;2.90;;
3463;SDS011;3551;41.578;24.706;2022-10-16T10:56:57;5.67;;;3.43;;
3463;SDS011;3551;41.578;24.706;2022-10-16T11:04:58;5.30;;;3.10;;
3463;SDS011;3551;41.578;24.706;2022-10-16T11:07:52;5.93;;;4.67;;
3463;SDS011;3551;41.578;24.706;2022-10-16T11:10:25;7.50;;;3.33;;
3463;SDS011;3551;41.578;24.706;2022-10-16T11:12:59;4.90;;;3.03;;
3463;SDS011;3551;41.578;24.706;2022-10-16T11:15:33;5.80;;;3.27;;
3463;SDS011;3551;41.578;24.706;2022-10-16T11:21:09;5.30;;;2.97;;
3463;SDS011;3551;41.578;24.706;2022-10-16T11:23:40;5.07;;;3.10;;
3463;SDS011;3551;41.578;24.706;2022-10-16T11:26:11;5.70;;;3.23;;
3463;SDS011;3551;41.578;24.706;2022-10-16T11:28:46;4.50;;;3.03;;
3463;SDS011;3551;41.578;24.706;2022-10-16T11:31:16;4.63;;;3.20;;
3463;SDS011;3551;41.578;24.706;2022-10-16T11:33:49;10.23;;;3.60;;
3463;SDS011;3551;41.578;24.706;2022-10-16T11:36:25;7.10;;;3.53;;
3463;SDS011;3551;41.578;24.706;2022-10-16T11:39:00;4.90;;;2.97;;
3463;SDS011;3551;41.578;24.706;2022-10-16T11:41:35;5.70;;;3.43;;
3463;SDS011;3551;41.578;24.706;2022-10-16T11:47:15;3.90;;;3.07;;
3463;SDS011;3551;41.578;24.706;2022-10-16T11:50:43;5.03;;;3.17;;
3463;SDS011;3551;41.578;24.706;2022-10-16T11:53:18;5.03;;;3.20;;
3463;SDS011;3551;41.578;24.706;2022-10-16T11:55:51;4.63;;;2.87;;
3463;SDS011;3551;41.578;24.706;2022-10-16T11:58:22;5.87;;;3.30;;
3463;SDS011;3551;41.578;24.706;2022-10-16T12:00:56;5.50;;;3.43;;
3463;SDS011;3551;41.578;24.706;2022-10-16T12:09:04;4.50;;;3.50;;
3463;SDS011;3551;41.578;24.706;2022-10-16T12:14:22;6.30;;;3.40;;
3463;SDS011;3551;41.578;24.706;2022-10-16T12:17:02;7.03;;;3.00;;
3463;SDS011;3551;41.578;24.706;2022-10-16T12:20:12;4.97;;;3.23;;
3463;SDS011;3551;41.578;24.706;2022-10-16T12:22:47;5.10;;;3.30;;
3463;SDS011;3551;41.578;24.706;2022-10-16T12:29:09;4.10;;;2.93;;
3463;SDS011;3551;41.578;24.706;2022-10-16T12:31:43;8.30;;;3.40;;
3463;SDS011;3551;41.578;24.706;2022-10-16T12:34:15;4.60;;;3.43;;
3463;SDS011;3551;41.578;24.706;2022-10-16T12:36:50;6.17;;;3.13;;
3463;SDS011;3551;41.578;24.706;2022-10-16T12:39:20;6.20;;;3.30;;
3463;SDS011;3551;41.578;24.706;2022-10-16T12:41:48;9.73;;;3.47;;
3463;SDS011;3551;41.578;24.706;2022-10-16T12:44:28;5.80;;;3.67;;
3463;SDS011;3551;41.578;24.706;2022-10-16T12:46:58;4.20;;;2.93;;
3463;SDS011;3551;41.578;24.706;2022-10-16T12:54:55;4.80;;;2.87;;
3463;SDS011;3551;41.578;24.706;2022-10-16T13:00:24;5.40;;;3.00;;
3463;SDS011;3551;41.578;24.706;2022-10-16T13:05:52;6.63;;;3.47;;
3463;SDS011;3551;41.578;24.706;2022-10-16T13:08:33;4.10;;;3.10;;
3463;SDS011;3551;41.578;24.706;2022-10-16T13:11:11;6.47;;;2.80;;
3463;SDS011;3551;41.578;24.706;2022-10-16T13:17:32;4.67;;;3.07;;
3463;SDS011;3551;41.578;24.706;2022-10-16T13:20:12;4.43;;;3.00;;
3463;SDS011;3551;41.578;24.706;2022-10-16T13:25:34;6.30;;;3.07;;
3463;SDS011;3551;41.578;24.706;2022-10-16T13:28:10;7.63;;;3.33;;
3463;SDS011;3551;41.578;24.706;2022-10-16T13:30:39;4.60;;;3.40;;
3463;SDS011;3551;41.578;24.706;2022-10-16T13:33:15;4.83;;;2.50;;
3463;SDS011;3551;41.578;24.706;2022-10-16T13:35:47;6.00;;;3.27;;
3463;SDS011;3551;41.578;24.706;2022-10-16T13:38:16;7.27;;;3.63;;
3463;SDS011;3551;41.578;24.706;2022-10-16T13:43:31;5.33;;;3.27;;
3463;SDS011;3551;41.578;24.706;2022-10-16T13:46:01;4.70;;;3.10;;
3463;SDS011;3551;41.578;24.706;2022-10-16T13:48:31;6.07;;;3.20;;
3463;SDS011;3551;41.578;24.706;2022-10-16T13:51:01;3.87;;;2.87;;
3463;SDS011;3551;41.578;24.706;2022-10-16T13:53:32;4.53;;;3.23;;
3463;SDS011;3551;41.578;24.706;2022-10-16T13:56:00;4.80;;;3.17;;
3463;SDS011;3551;41.578;24.706;2022-10-16T13:58:30;6.97;;;3.53;;
3463;SDS011;3551;41.578;24.706;2022-10-16T14:00:57;4.47;;;3.20;;
3463;SDS011;3551;41.578;24.706;2022-10-16T14:03:26;5.83;;;3.67;;
3463;SDS011;3551;41.578;24.706;2022-10-16T14:05:57;5.60;;;3.00;;
3463;SDS011;3551;41.578;24.706;2022-10-16T14:08:27;5.20;;;3.40;;
3463;SDS011;3551;41.578;24.706;2022-10-16T14:10:56;5.90;;;3.90;;
3463;SDS011;3551;41.578;24.706;2022-10-16T14:13:28;6.17;;;3.60;;
3463;SDS011;3551;41.578;24.706;2022-10-16T14:15:58;10.83;;;3.73;;
3463;SDS011;3551;41.578;24.706;2022-10-16T14:18:28;4.00;;;3.20;;
3463;SDS011;3551;41.578;24.706;2022-10-16T14:21:03;8.90;;;4.40;;
3463;SDS011;3551;41.578;24.706;2022-10-16T14:23:32;5.63;;;3.70;;
3463;SDS011;3551;41.578;24.706;2022-10-16T14:29:29;18.83;;;4.10;;
3463;SDS011;3551;41.578;24.706;2022-10-16T14:31:57;10.27;;;4.30;;
3463;SDS011;3551;41.578;24.706;2022-10-16T14:34:27;7.87;;;5.23;;
3463;SDS011;3551;41.578;24.706;2022-10-16T14:36:59;8.50;;;3.90;;
3463;SDS011;3551;41.578;24.706;2022-10-16T14:39:32;5.90;;;3.97;;
